Time;durP1;ratioP1;P1;durP2;ratioP2;P2;SDS_P1;SDS_P2;PMS_P1;PMS_P2;Temp;Humidity;BMP_temperature;BMP_pressure;BME280_temperature;BME280_humidity;BME280_pressure;Samples;Min_cycle;Max_cycle;Signal;HPM_P1;HPM_P2
2022/04/26 03:38:27;;;;;;;9.80;8.80;;;;;;;6.46;100.00;96622.44;5010146;28;21763;-59
2022/04/26 03:40:57;;;;;;;10.43;9.53;;;;;;;6.35;100.00;96619.19;5057359;28;20215;-58
2022/04/26 03:43:25;;;;;;;9.60;8.70;;;;;;;6.37;100.00;96622.47;5031232;28;20210;-56
2022/04/26 03:45:54;;;;;;;9.97;9.13;;;;;;;6.31;100.00;96622.34;5037272;28;20378;-58
2022/04/26 03:48:22;;;;;;;9.63;8.83;;;;;;;6.30;100.00;96618.91;5024355;28;20210;-57
2022/04/26 03:50:51;;;;;;;11.40;10.30;;;;;;;6.43;100.00;96620.94;5039986;28;20470;-55
2022/04/26 03:53:19;;;;;;;10.00;9.17;;;;;;;6.41;100.00;96628.19;5066528;28;20483;-55
2022/04/26 03:55:47;;;;;;;10.50;9.63;;;;;;;6.47;100.00;96630.16;5014038;28;20221;-56
2022/04/26 03:58:15;;;;;;;10.33;9.33;;;;;;;6.53;100.00;96630.47;5065035;28;20213;-54
2022/04/26 04:00:43;;;;;;;10.43;9.53;;;;;;;6.58;100.00;96626.31;5050195;28;20562;-57
2022/04/26 04:03:11;;;;;;;10.63;9.73;;;;;;;6.61;100.00;96628.59;5049785;28;20210;-57
2022/04/26 04:05:41;;;;;;;10.70;8.93;;;;;;;6.51;100.00;96622.72;5045003;28;20206;-57
2022/04/26 04:08:10;;;;;;;10.60;9.60;;;;;;;6.50;100.00;96624.56;5062581;28;20240;-59
2022/04/26 04:10:38;;;;;;;9.87;8.97;;;;;;;6.67;100.00;96621.84;5024289;28;20206;-55
2022/04/26 04:13:06;;;;;;;10.27;9.37;;;;;;;6.59;100.00;96632.41;5062540;28;21228;-55
2022/04/26 04:15:36;;;;;;;9.73;8.90;;;;;;;6.58;100.00;96623.69;5066323;28;20285;-56
2022/04/26 04:19:17;;;;;;;8.90;8.10;;;;;;;6.56;100.00;96624.88;5050196;28;20425;-61
2022/04/26 04:20:52;;;;;;;10.20;9.30;;;;;;;6.53;100.00;96627.84;5050209;28;20203;-55
2022/04/26 04:23:22;;;;;;;10.77;9.77;;;;;;;6.61;100.00;96640.97;5063829;28;20318;-59
2022/04/26 04:25:50;;;;;;;9.77;8.97;;;;;;;6.77;100.00;96634.78;5024711;28;20232;-56
2022/04/26 04:28:18;;;;;;;9.50;8.73;;;;;;;6.83;100.00;96628.81;5066478;28;20198;-57
2022/04/26 04:30:46;;;;;;;10.23;9.23;;;;;;;6.92;100.00;96627.78;5061191;28;20301;-60
2022/04/26 04:33:14;;;;;;;10.87;9.97;;;;;;;7.00;100.00;96628.72;5050170;28;20251;-57
2022/04/26 04:35:43;;;;;;;10.53;8.67;;;;;;;7.11;100.00;96630.94;5051407;28;20212;-56
2022/04/26 04:38:11;;;;;;;10.27;9.37;;;;;;;7.13;100.00;96636.88;5061919;28;20428;-64
2022/04/26 04:40:40;;;;;;;9.90;9.03;;;;;;;7.21;100.00;96634.16;5049086;28;20258;-60
2022/04/26 04:43:09;;;;;;;9.60;8.70;;;;;;;7.36;100.00;96639.50;5044450;28;20362;-61
2022/04/26 04:45:36;;;;;;;9.70;8.83;;;;;;;7.36;100.00;96641.28;5068007;28;20209;-57
2022/04/26 04:48:06;;;;;;;9.60;8.80;;;;;;;7.40;100.00;96645.25;5055490;28;20233;-58
2022/04/26 04:50:34;;;;;;;9.47;8.67;;;;;;;7.48;100.00;96645.16;5040436;28;20223;-58
2022/04/26 04:53:03;;;;;;;9.17;8.37;;;;;;;7.56;100.00;96646.91;5061397;28;20747;-50
2022/04/26 04:55:31;;;;;;;9.10;8.20;;;;;;;7.61;100.00;96646.38;5070219;28;20289;-56
2022/04/26 04:58:01;;;;;;;10.03;9.17;;;;;;;7.73;100.00;96649.41;5024023;28;20298;-60
2022/04/26 05:00:29;;;;;;;9.07;8.17;;;;;;;7.76;100.00;96657.75;5062652;28;20227;-57
2022/04/26 05:02:58;;;;;;;8.43;7.73;;;;;;;7.75;100.00;96663.22;5068168;28;20482;-53
2022/04/26 05:05:26;;;;;;;10.00;9.00;;;;;;;7.79;100.00;96660.06;5055082;28;20206;-55
2022/04/26 05:07:54;;;;;;;8.23;7.53;;;;;;;7.77;100.00;96662.06;5032019;28;20210;-59
2022/04/26 05:10:22;;;;;;;9.17;8.30;;;;;;;7.77;100.00;96662.06;5055766;28;20480;-55
2022/04/26 05:12:50;;;;;;;9.00;8.10;;;;;;;7.77;100.00;96664.69;5010689;28;20549;-54
2022/04/26 05:15:20;;;;;;;8.50;7.80;;;;;;;7.87;100.00;96666.25;5048630;28;20206;-59
2022/04/26 05:17:48;;;;;;;8.50;7.90;;;;;;;7.81;100.00;96662.50;5063506;28;20567;-55
2022/04/26 05:20:16;;;;;;;9.13;8.30;;;;;;;7.75;100.00;96666.66;5059856;28;20321;-58
2022/04/26 05:25:41;;;;;;;8.47;7.40;;;;;;;7.80;100.00;96663.50;5020425;28;20239;-57
2022/04/26 05:28:10;;;;;;;8.73;7.93;;;;;;;7.90;100.00;96657.97;4997810;28;20311;-59
2022/04/26 05:30:39;;;;;;;9.27;8.40;;;;;;;7.85;100.00;96655.88;4982162;28;20968;-58
2022/04/26 05:33:07;;;;;;;8.73;7.97;;;;;;;8.08;100.00;96658.44;5016830;28;20223;-55
2022/04/26 05:35:35;;;;;;;9.53;8.73;;;;;;;8.17;100.00;96655.75;5016650;28;20416;-58
2022/04/26 05:38:03;;;;;;;9.10;8.40;;;;;;;8.19;100.00;96654.53;5003445;28;20594;-55
2022/04/26 05:40:31;;;;;;;8.70;7.90;;;;;;;8.26;100.00;96655.44;5018113;28;20367;-58
2022/04/26 05:42:59;;;;;;;8.57;7.77;;;;;;;8.26;100.00;96659.91;5011556;28;20204;-60
2022/04/26 05:45:28;;;;;;;8.80;8.00;;;;;;;8.37;100.00;96663.94;4976254;28;20216;-58
2022/04/26 05:47:57;;;;;;;8.67;7.87;;;;;;;8.49;100.00;96659.84;5014637;28;20429;-58
2022/04/26 05:50:25;;;;;;;8.90;8.13;;;;;;;8.40;100.00;96660.91;5019924;28;20228;-55
2022/04/26 05:52:53;;;;;;;8.53;7.87;;;;;;;8.54;100.00;96667.22;4991159;28;20326;-59
2022/04/26 05:55:21;;;;;;;9.00;8.30;;;;;;;8.43;100.00;96671.13;5015852;28;20204;-57
2022/04/26 05:57:49;;;;;;;10.27;9.37;;;;;;;8.43;100.00;96667.63;5025134;28;20520;-58
2022/04/26 06:00:19;;;;;;;8.90;8.20;;;;;;;8.29;100.00;96667.47;5007276;28;20233;-59
2022/04/26 06:02:48;;;;;;;10.63;9.60;;;;;;;8.34;100.00;96665.09;5059417;28;20198;-62
2022/04/26 06:05:21;;;;;;;9.37;8.57;;;;;;;8.48;100.00;96670.53;5064285;28;20616;-57
2022/04/26 06:07:49;;;;;;;9.23;8.33;;;;;;;8.43;100.00;96671.13;5051109;28;20203;-58
2022/04/26 06:10:17;;;;;;;9.50;8.60;;;;;;;8.30;100.00;96677.03;5064532;28;20258;-56
2022/04/26 06:12:46;;;;;;;10.50;9.57;;;;;;;8.26;100.00;96678.41;5061386;28;20218;-54
2022/04/26 06:15:17;;;;;;;9.70;8.70;;;;;;;8.23;100.00;96679.56;5030862;28;20696;-58
2022/04/26 06:17:45;;;;;;;9.13;8.33;;;;;;;8.25;100.00;96677.56;5053733;28;20218;-58
2022/04/26 06:20:13;;;;;;;10.33;9.40;;;;;;;8.02;100.00;96682.13;5064699;28;20597;-58
2022/04/26 06:22:43;;;;;;;10.43;9.47;;;;;;;8.00;100.00;96674.38;5046659;28;20272;-55
2022/04/26 06:25:11;;;;;;;10.13;9.33;;;;;;;7.95;100.00;96674.09;5066994;28;20687;-56
2022/04/26 06:27:39;;;;;;;9.70;8.80;;;;;;;7.80;100.00;96679.34;5065766;28;20519;-57
2022/04/26 06:30:07;;;;;;;9.63;8.13;;;;;;;7.64;100.00;96675.00;5051119;28;20242;-57
2022/04/26 06:32:35;;;;;;;11.67;10.50;;;;;;;7.58;100.00;96683.63;5019217;28;20566;-53
2022/04/26 06:35:04;;;;;;;11.60;10.10;;;;;;;7.52;100.00;96686.00;5062145;28;20391;-56
2022/04/26 06:37:32;;;;;;;11.27;10.17;;;;;;;7.43;100.00;96679.16;5060265;28;20213;-60
2022/04/26 06:40:01;;;;;;;11.23;10.23;;;;;;;7.41;100.00;96683.78;5049330;28;20563;-59
2022/04/26 06:42:29;;;;;;;12.00;10.90;;;;;;;7.48;100.00;96679.44;5062250;28;20479;-59
2022/04/26 06:44:57;;;;;;;13.43;12.13;;;;;;;7.41;100.00;96686.41;5065712;28;20606;-55
2022/04/26 06:47:25;;;;;;;12.57;11.40;;;;;;;7.40;100.00;96687.41;5004053;28;20641;-53
2022/04/26 06:49:53;;;;;;;11.77;10.67;;;;;;;7.41;100.00;96683.78;5059365;28;20337;-58
2022/04/26 06:52:21;;;;;;;11.93;10.83;;;;;;;7.35;100.00;96692.38;5062713;28;20288;-56
2022/04/26 06:54:50;;;;;;;11.77;10.77;;;;;;;7.32;100.00;96695.34;5050524;28;20257;-54
2022/04/26 06:57:19;;;;;;;12.73;11.53;;;;;;;7.29;100.00;96690.44;5064298;28;20207;-58
2022/04/26 06:59:47;;;;;;;15.03;13.73;;;;;;;7.31;100.00;96686.63;5067181;28;20332;-56
2022/04/26 07:02:16;;;;;;;11.70;10.67;;;;;;;7.35;100.00;96692.38;5031066;28;20206;-59
2022/04/26 07:04:44;;;;;;;12.07;10.97;;;;;;;7.44;100.00;96693.97;5055218;28;20435;-55
2022/04/26 07:07:12;;;;;;;12.40;11.20;;;;;;;7.55;100.00;96686.63;5063219;28;20241;-55
2022/04/26 07:09:40;;;;;;;12.07;10.80;;;;;;;7.69;100.00;96688.47;5053551;28;20233;-59
2022/04/26 07:12:09;;;;;;;13.67;12.27;;;;;;;7.77;100.00;96677.88;5072986;28;20277;-57
2022/04/26 07:14:38;;;;;;;11.60;10.57;;;;;;;7.77;100.00;96683.16;5067993;28;20227;-54
2022/04/26 07:17:06;;;;;;;12.50;11.40;;;;;;;7.81;100.00;96687.06;5049346;28;20700;-58
2022/04/26 07:19:35;;;;;;;13.10;11.93;;;;;;;7.92;100.00;96692.91;5018431;28;20985;-56
2022/04/26 07:22:23;;;;;;;13.03;11.93;;;;;;;8.00;100.00;96686.75;5061447;28;20214;-57
2022/04/26 07:24:51;;;;;;;11.97;10.83;;;;;;;8.04;100.00;96680.09;5065404;28;20198;-55
2022/04/26 07:27:20;;;;;;;12.53;11.33;;;;;;;7.96;100.00;96678.38;5051923;28;20596;-57
2022/04/26 07:29:51;;;;;;;12.37;11.37;;;;;;;7.97;100.00;96678.19;5068818;28;20226;-55
2022/04/26 07:32:19;;;;;;;12.50;11.30;;;;;;;8.00;100.00;96684.13;5052337;28;20210;-57
2022/04/26 07:34:46;;;;;;;12.67;11.47;;;;;;;7.99;100.00;96679.84;5020306;28;20720;-55
2022/04/26 07:37:14;;;;;;;12.70;11.60;;;;;;;8.04;100.00;96685.38;5063139;28;20239;-54
2022/04/26 07:39:42;;;;;;;11.40;10.40;;;;;;;8.28;100.00;96686.13;5058820;28;20510;-54
2022/04/26 07:42:10;;;;;;;12.43;11.10;;;;;;;8.32;100.00;96690.88;5051486;28;20205;-56
2022/04/26 07:44:39;;;;;;;11.57;10.47;;;;;;;8.34;100.00;96690.69;5065149;28;20396;-52
2022/04/26 07:47:09;;;;;;;12.67;11.37;;;;;;;8.38;100.00;96686.69;5062577;28;20209;-54
2022/04/26 07:49:37;;;;;;;12.27;11.17;;;;;;;8.48;100.00;96689.03;5010360;28;20940;-54
2022/04/26 07:52:05;;;;;;;12.47;11.27;;;;;;;8.51;100.00;96688.69;5066661;28;20205;-59
2022/04/26 07:54:33;;;;;;;11.27;10.17;;;;;;;8.56;100.00;96689.00;5065567;28;20252;-59
2022/04/26 07:57:01;;;;;;;11.97;10.87;;;;;;;8.60;100.00;96690.25;5058124;28;20206;-54
2022/04/26 07:59:30;;;;;;;10.57;9.67;;;;;;;8.45;100.00;96697.31;5064602;28;20411;-59
2022/04/26 08:01:59;;;;;;;11.60;10.50;;;;;;;8.62;100.00;96697.97;5068603;28;20229;-60
2022/04/26 08:04:29;;;;;;;12.17;11.07;;;;;;;8.60;100.00;96692.91;5054902;28;20807;-59
2022/04/26 08:06:56;;;;;;;11.30;10.30;;;;;;;8.66;100.00;96694.81;5025058;28;20211;-57
2022/04/26 08:09:24;;;;;;;10.77;9.87;;;;;;;8.61;100.00;96701.63;5061431;28;20218;-58
2022/04/26 08:11:52;;;;;;;11.77;10.67;;;;;;;8.52;100.00;96701.72;5066945;28;20682;-58
2022/04/26 08:14:21;;;;;;;11.70;10.63;;;;;;;8.46;100.00;96715.63;5046013;28;20226;-57
2022/04/26 08:16:48;;;;;;;11.13;10.13;;;;;;;8.46;100.00;96707.72;5068170;28;20206;-57
2022/04/26 08:19:17;;;;;;;12.43;11.23;;;;;;;8.47;100.00;96719.06;5051694;28;20230;-57
2022/04/26 08:21:46;;;;;;;11.57;10.37;;;;;;;8.59;100.00;96724.75;5030343;28;20837;-60
2022/04/26 08:29:46;;;;;;;11.83;9.77;;;;;;;8.69;100.00;96715.56;5048433;28;20230;-61
2022/04/26 08:32:14;;;;;;;11.43;10.43;;;;;;;8.74;100.00;96730.03;5066431;28;20202;-56
2022/04/26 08:34:42;;;;;;;11.03;10.00;;;;;;;8.74;100.00;96728.22;5054988;28;21027;-57
2022/04/26 08:37:12;;;;;;;10.87;9.87;;;;;;;8.75;100.00;96724.59;5054988;28;20297;-60
2022/04/26 08:39:40;;;;;;;10.37;9.10;;;;;;;8.89;100.00;96730.03;5045904;28;21205;-57
2022/04/26 08:42:09;;;;;;;10.37;9.47;;;;;;;9.03;100.00;96729.16;5066070;28;20207;-57
2022/04/26 08:44:38;;;;;;;11.00;9.93;;;;;;;9.33;100.00;96728.28;5052540;28;20298;-58
2022/04/26 08:52:49;;;;;;;10.37;9.37;;;;;;;10.40;100.00;96728.41;5062200;28;20261;-60
2022/04/26 08:55:18;;;;;;;9.50;8.70;;;;;;;10.53;100.00;96732.97;5026160;28;20222;-57
2022/04/26 08:57:46;;;;;;;10.83;9.87;;;;;;;10.83;100.00;96724.78;5064243;28;20294;-58
2022/04/26 09:00:15;;;;;;;10.23;9.33;;;;;;;10.96;100.00;96726.66;5052306;28;20218;-56
2022/04/26 09:02:43;;;;;;;8.70;8.00;;;;;;;11.12;100.00;96731.63;5066548;28;20411;-58
2022/04/26 09:05:12;;;;;;;9.87;9.07;;;;;;;11.22;100.00;96725.94;5069424;28;20861;-55
2022/04/26 09:07:44;;;;;;;9.97;8.97;;;;;;;11.08;100.00;96721.59;5064956;28;20887;-57
2022/04/26 09:10:15;;;;;;;10.17;9.37;;;;;;;11.06;100.00;96726.28;5021912;28;20226;-56
2022/04/26 09:13:03;;;;;;;10.23;9.43;;;;;;;11.11;100.00;96729.16;5062995;28;20225;-60
2022/04/26 09:15:37;;;;;;;11.07;10.17;;;;;;;11.27;100.00;96728.00;5050382;28;20226;-58
2022/04/26 09:18:17;;;;;;;11.33;10.20;;;;;;;11.18;100.00;96727.38;5065754;28;20210;-55
2022/04/26 09:20:46;;;;;;;10.23;9.43;;;;;;;10.93;100.00;96725.22;5065482;28;20614;-59
2022/04/26 09:23:18;;;;;;;10.97;9.97;;;;;;;10.93;100.00;96730.53;5050571;28;20685;-57
2022/04/26 09:25:48;;;;;;;10.93;9.93;;;;;;;11.08;100.00;96729.56;5022117;28;20725;-58
2022/04/26 09:28:26;;;;;;;9.80;8.90;;;;;;;11.04;100.00;96730.97;5059524;28;20393;-55
2022/04/26 09:30:55;;;;;;;9.87;9.07;;;;;;;10.63;100.00;96735.28;5052037;28;20331;-57
2022/04/26 09:33:38;;;;;;;10.20;9.20;;;;;;;10.57;100.00;96737.66;5061662;28;20202;-56
2022/04/26 09:36:07;;;;;;;9.67;8.80;;;;;;;10.51;100.00;96737.66;5062954;28;20276;-55
2022/04/26 09:38:35;;;;;;;10.67;9.77;;;;;;;10.32;100.00;96739.13;5052411;28;20604;-58
2022/04/26 09:41:06;;;;;;;9.47;8.67;;;;;;;10.20;100.00;96741.47;4996755;28;20406;-55
2022/04/26 09:43:34;;;;;;;9.27;8.47;;;;;;;10.09;100.00;96746.28;5065274;28;20563;-56
2022/04/26 09:46:01;;;;;;;9.90;9.10;;;;;;;10.13;100.00;96744.91;5034168;28;20759;-58
2022/04/26 09:48:32;;;;;;;10.00;9.20;;;;;;;10.07;100.00;96742.19;5065162;28;20829;-61
2022/04/26 09:51:00;;;;;;;10.03;9.23;;;;;;;9.91;100.00;96745.94;5061942;28;20345;-57
2022/04/26 09:53:29;;;;;;;9.40;8.50;;;;;;;9.80;100.00;96755.19;5052661;28;20589;-55
2022/04/26 09:55:58;;;;;;;9.70;8.90;;;;;;;9.72;100.00;96750.03;5007094;28;20734;-55
2022/04/26 09:58:29;;;;;;;10.87;9.87;;;;;;;9.72;100.00;96752.66;5068422;28;20622;-59
2022/04/26 10:00:58;;;;;;;11.10;10.10;;;;;;;9.74;100.00;96754.13;5047870;28;20207;-59
2022/04/26 10:03:28;;;;;;;10.30;9.40;;;;;;;9.78;100.00;96759.84;5059885;28;20285;-59
2022/04/26 10:06:01;;;;;;;9.63;8.70;;;;;;;9.93;100.00;96757.13;5060521;28;20431;-60
2022/04/26 10:08:32;;;;;;;13.03;11.77;;;;;;;9.97;100.00;96758.38;5054110;28;20214;-58
2022/04/26 10:11:00;;;;;;;10.13;9.13;;;;;;;9.96;100.00;96754.09;5022731;28;21238;-58
2022/04/26 10:13:35;;;;;;;9.80;9.10;;;;;;;9.81;100.00;96756.81;5064622;28;20240;-57
2022/04/26 10:16:05;;;;;;;10.20;9.23;;;;;;;9.82;100.00;96759.28;5065408;28;20430;-56
2022/04/26 10:18:35;;;;;;;10.43;9.43;;;;;;;9.93;100.00;96749.19;5048484;28;20226;-56
2022/04/26 10:21:04;;;;;;;10.27;9.30;;;;;;;10.00;100.00;96758.00;5059516;28;20202;-55
2022/04/26 10:24:12;;;;;;;10.00;9.03;;;;;;;10.04;100.00;96754.00;5065535;28;20202;-59
2022/04/26 10:26:41;;;;;;;10.07;9.27;;;;;;;10.05;100.00;96758.28;5019699;28;20532;-59
2022/04/26 10:29:15;;;;;;;11.97;10.97;;;;;;;9.95;100.00;96755.94;5060788;28;20307;-58
2022/04/26 10:31:45;;;;;;;11.30;10.30;;;;;;;9.97;100.00;96758.38;5062169;28;20685;-57
2022/04/26 10:34:26;;;;;;;10.27;9.37;;;;;;;10.02;100.00;96763.13;5056906;28;20294;-58
2022/04/26 10:36:55;;;;;;;10.47;9.57;;;;;;;9.99;100.00;96762.50;5061729;28;20307;-57
2022/04/26 10:39:36;;;;;;;11.13;9.90;;;;;;;9.95;100.00;96752.47;5067204;28;20258;-57
2022/04/26 10:42:26;;;;;;;10.30;9.47;;;;;;;10.09;100.00;96753.41;5004700;28;20226;-61
2022/04/26 10:45:00;;;;;;;10.37;9.57;;;;;;;10.12;100.00;96750.38;5060992;28;20291;-59
2022/04/26 10:47:29;;;;;;;11.03;10.03;;;;;;;10.36;100.00;96738.53;5062617;28;20198;-57
2022/04/26 10:50:02;;;;;;;11.30;10.30;;;;;;;10.56;100.00;96743.19;5044542;28;20308;-57
2022/04/26 10:52:41;;;;;;;12.27;11.07;;;;;;;10.59;100.00;96748.09;5063756;28;21110;-56
2022/04/26 10:55:14;;;;;;;11.33;10.20;;;;;;;10.73;100.00;96745.50;5048223;28;20329;-61
2022/04/26 10:57:44;;;;;;;11.43;10.33;;;;;;;11.06;100.00;96752.78;5016287;28;20524;-56
2022/04/26 11:00:16;;;;;;;11.83;10.73;;;;;;;11.28;100.00;96754.31;5062201;28;20222;-57
2022/04/26 11:02:45;;;;;;;10.60;9.70;;;;;;;11.38;100.00;96747.81;5060855;28;20592;-59
2022/04/26 11:05:16;;;;;;;12.03;10.83;;;;;;;11.81;100.00;96746.69;5053006;28;20545;-59
2022/04/26 11:07:46;;;;;;;12.20;11.00;;;;;;;12.01;100.00;96747.53;5063935;28;20198;-54
2022/04/26 11:10:15;;;;;;;11.37;10.40;;;;;;;12.15;100.00;96752.88;5052456;28;21082;-53
2022/04/26 11:12:43;;;;;;;11.07;10.00;;;;;;;12.53;100.00;96746.06;5026079;28;20214;-55
2022/04/26 11:15:14;;;;;;;11.23;10.23;;;;;;;13.00;100.00;96748.63;5062426;28;20301;-58
2022/04/26 11:17:43;;;;;;;10.83;9.93;;;;;;;13.44;100.00;96747.00;5067173;28;20203;-60
2022/04/26 11:20:14;;;;;;;11.00;10.10;;;;;;;13.51;100.00;96749.66;5045799;28;20243;-58
2022/04/26 11:22:47;;;;;;;11.23;10.03;;;;;;;13.27;100.00;96749.31;5067984;28;20198;-57
2022/04/26 11:28:12;;;;;;;12.07;10.90;;;;;;;12.36;100.00;96751.84;5009068;28;20232;-57
2022/04/26 11:30:43;;;;;;;12.10;11.00;;;;;;;12.41;100.00;96744.06;5063132;28;20296;-58
2022/04/26 11:33:13;;;;;;;11.27;10.17;;;;;;;12.39;100.00;96745.28;5063946;28;20217;-58
2022/04/26 11:35:42;;;;;;;12.13;11.07;;;;;;;12.75;100.00;96743.97;5054226;28;20333;-56
2022/04/26 11:38:12;;;;;;;11.97;10.90;;;;;;;13.23;100.00;96744.63;5067840;28;20303;-62
2022/04/26 11:40:42;;;;;;;11.70;10.50;;;;;;;13.44;100.00;96740.88;5063460;28;20301;-59
2022/04/26 11:43:12;;;;;;;11.17;10.17;;;;;;;13.51;100.00;96739.00;5013450;28;25844;-55
2022/04/26 11:45:43;;;;;;;11.47;10.43;;;;;;;13.31;100.00;96745.19;5058388;28;20306;-57
2022/04/26 11:48:13;;;;;;;11.23;10.33;;;;;;;12.96;100.00;96750.88;5061881;28;20481;-58
2022/04/26 11:50:42;;;;;;;10.80;9.90;;;;;;;12.52;100.00;96757.72;5065395;28;20593;-57
2022/04/26 11:53:11;;;;;;;11.90;10.80;;;;;;;12.00;100.00;96745.91;5054335;28;20695;-58
2022/04/26 11:55:41;;;;;;;12.30;11.20;;;;;;;11.75;100.00;96748.31;5060712;28;20237;-57
2022/04/26 11:58:17;;;;;;;11.17;10.13;;;;;;;11.66;100.00;96762.78;5010349;28;20728;-57
2022/04/26 12:00:55;;;;;;;12.23;11.13;;;;;;;11.20;100.00;96757.16;5063678;28;20213;-58
2022/04/26 12:03:25;;;;;;;11.33;10.43;;;;;;;11.22;100.00;96765.72;5061356;28;20209;-55
2022/04/26 12:05:55;;;;;;;12.47;11.27;;;;;;;10.85;100.00;96763.31;5062885;28;20224;-57
2022/04/26 12:08:23;;;;;;;12.20;11.10;;;;;;;10.64;100.00;96766.06;5044283;28;20589;-54
2022/04/26 12:10:51;;;;;;;11.00;10.10;;;;;;;10.63;100.00;96767.06;5060684;28;20214;-56
2022/04/26 12:13:31;;;;;;;11.10;10.17;;;;;;;10.75;100.00;96769.97;5046392;28;20215;-58
2022/04/26 12:16:16;;;;;;;11.83;10.83;;;;;;;10.63;100.00;96767.88;5014907;28;20226;-56
2022/04/26 12:18:54;;;;;;;11.07;10.07;;;;;;;10.64;100.00;96769.50;5058238;28;20222;-56
2022/04/26 12:21:23;;;;;;;10.87;9.87;;;;;;;10.38;100.00;96765.63;5057561;28;20405;-58
2022/04/26 12:24:10;;;;;;;11.80;10.67;;;;;;;10.37;100.00;96763.19;5046029;28;20568;-58
2022/04/26 12:26:38;;;;;;;11.73;10.70;;;;;;;10.35;100.00;96762.56;5065371;28;20234;-56
2022/04/26 12:29:13;;;;;;;13.10;11.90;;;;;;;10.19;100.00;96763.66;5020976;28;22127;-56
2022/04/26 12:31:47;;;;;;;11.23;10.13;;;;;;;10.11;100.00;96765.44;5058263;28;20210;-59
2022/04/26 12:34:19;;;;;;;12.13;11.03;;;;;;;10.16;100.00;96775.44;5066911;28;20549;-56
2022/04/26 12:36:58;;;;;;;12.47;10.27;;;;;;;9.90;100.00;96762.81;5056920;28;20601;-57
2022/04/26 12:39:30;;;;;;;12.23;11.23;;;;;;;9.86;100.00;96770.31;5066216;28;20280;-62
2022/04/26 12:41:59;;;;;;;12.87;11.77;;;;;;;9.84;100.00;96772.31;5065327;28;20199;-61
2022/04/26 12:44:28;;;;;;;10.83;9.93;;;;;;;9.93;100.00;96773.00;5024372;28;20218;-60
2022/04/26 12:52:45;;;;;;;13.10;11.93;;;;;;;9.76;100.00;96785.69;5016183;28;20286;-58
2022/04/26 12:55:13;;;;;;;13.47;12.27;;;;;;;9.89;100.00;96777.06;5016319;28;20302;-56
2022/04/26 12:57:51;;;;;;;12.37;11.27;;;;;;;9.92;100.00;96785.44;5019654;28;20262;-56
2022/04/26 13:00:20;;;;;;;11.77;10.57;;;;;;;9.82;100.00;96779.63;4983914;28;20805;-55
2022/04/26 13:02:51;;;;;;;11.80;10.80;;;;;;;9.80;100.00;96781.63;5007963;28;21012;-58
2022/04/26 13:05:21;;;;;;;11.33;9.87;;;;;;;9.90;100.00;96790.09;4996154;28;20208;-53
2022/04/26 13:07:49;;;;;;;11.53;10.53;;;;;;;10.16;100.00;96785.22;5006282;28;20924;-53
2022/04/26 13:10:18;;;;;;;15.93;14.37;;;;;;;10.28;100.00;96786.34;5008071;28;20224;-60
2022/04/26 13:12:46;;;;;;;13.70;12.40;;;;;;;10.51;100.00;96780.03;5007935;28;20218;-55
2022/04/26 13:15:16;;;;;;;13.93;12.73;;;;;;;10.59;100.00;96784.34;4987091;28;20654;-58
2022/04/26 13:17:45;;;;;;;11.53;10.37;;;;;;;10.36;100.00;96794.13;5020599;28;20223;-57
2022/04/26 13:20:14;;;;;;;12.53;11.47;;;;;;;10.10;100.00;96792.09;5024108;28;21050;-57
2022/04/26 13:22:42;;;;;;;10.67;9.67;;;;;;;10.07;100.00;96797.78;5008284;28;20293;-57
2022/04/26 13:25:10;;;;;;;12.07;10.97;;;;;;;9.83;100.00;96792.69;5046094;28;20212;-55
2022/04/26 13:27:39;;;;;;;11.43;10.30;;;;;;;9.50;100.00;96798.44;5051963;28;20199;-56
2022/04/26 13:30:09;;;;;;;13.07;11.90;;;;;;;8.96;100.00;96789.03;5042346;28;20345;-59
2022/04/26 13:32:37;;;;;;;11.40;10.33;;;;;;;8.63;100.00;96805.25;5053760;28;20202;-57
2022/04/26 13:35:06;;;;;;;8.20;7.40;;;;;;;8.38;100.00;96808.13;5039084;28;20510;-54
2022/04/26 13:37:36;;;;;;;6.50;6.00;;;;;;;8.05;100.00;96803.91;5049130;28;20535;-56
2022/04/26 13:40:06;;;;;;;4.07;3.77;;;;;;;7.76;100.00;96810.72;5047493;28;20585;-55
2022/04/26 13:42:35;;;;;;;4.87;4.47;;;;;;;7.52;100.00;96812.53;5067052;28;20194;-55
2022/04/26 13:45:04;;;;;;;5.70;5.20;;;;;;;7.45;100.00;96810.75;5064533;28;20656;-55
2022/04/26 13:47:32;;;;;;;4.43;4.13;;;;;;;7.41;100.00;96817.38;5027760;28;20207;-57
2022/04/26 13:50:00;;;;;;;6.97;6.40;;;;;;;7.40;100.00;96819.19;5065369;28;20850;-60
2022/04/26 13:52:28;;;;;;;4.67;4.27;;;;;;;7.45;100.00;96822.13;5046486;28;20203;-58
2022/04/26 13:54:58;;;;;;;3.47;3.27;;;;;;;7.46;100.00;96833.47;5047618;28;20647;-54
2022/04/26 13:57:26;;;;;;;4.20;3.90;;;;;;;7.44;100.00;96831.03;5064600;28;20312;-52
2022/04/26 13:59:54;;;;;;;4.33;4.03;;;;;;;7.61;100.00;96828.28;5061939;28;20454;-51
2022/04/26 14:02:22;;;;;;;3.93;3.63;;;;;;;7.68;100.00;96837.97;5026701;28;20268;-50
2022/04/26 14:04:50;;;;;;;3.60;3.40;;;;;;;7.77;100.00;96841.41;5066476;28;20227;-51
2022/04/26 14:07:18;;;;;;;3.70;3.40;;;;;;;7.90;100.00;96837.34;5066599;28;20281;-54
2022/04/26 14:09:46;;;;;;;5.63;4.20;;;;;;;7.96;100.00;96849.84;5031828;28;20314;-59
2022/04/26 14:12:18;;;;;;;4.23;3.93;;;;;;;8.01;100.00;96836.94;5061091;28;20287;-51
2022/04/26 14:23:02;;;;;;;5.30;4.90;;;;;;;7.91;100.00;96847.72;5051941;28;21591;-54
2022/04/26 14:25:30;;;;;;;4.80;4.40;;;;;;;7.92;100.00;96851.19;5065762;28;20364;-56
2022/04/26 14:28:00;;;;;;;5.07;4.70;;;;;;;7.96;100.00;96849.84;5048469;28;20315;-56
2022/04/26 14:30:28;;;;;;;4.40;4.10;;;;;;;7.93;100.00;96860.75;5068945;28;20534;-55
2022/04/26 14:33:13;;;;;;;5.17;4.87;;;;;;;7.87;100.00;96859.63;5024772;28;20652;-55
2022/04/26 14:35:41;;;;;;;4.17;3.87;;;;;;;7.92;100.00;96857.28;5060934;28;20376;-57
2022/04/26 14:38:10;;;;;;;4.00;3.70;;;;;;;8.00;100.00;96859.03;5060802;28;20345;-51
2022/04/26 14:40:38;;;;;;;4.63;4.27;;;;;;;7.97;100.00;96864.66;5046924;28;20233;-56
2022/04/26 14:43:10;;;;;;;5.63;5.23;;;;;;;7.96;100.00;96858.59;5023320;28;20210;-56
2022/04/26 14:45:45;;;;;;;5.10;4.70;;;;;;;8.05;100.00;96863.81;5059634;28;20321;-55
2022/04/26 14:48:16;;;;;;;4.30;4.00;;;;;;;8.02;100.00;96862.31;5021045;28;20206;-59
2022/04/26 14:51:00;;;;;;;3.70;3.50;;;;;;;8.02;100.00;96864.97;5067512;28;20209;-53
2022/04/26 14:53:28;;;;;;;4.40;4.00;;;;;;;7.96;100.00;96863.88;5064796;28;20285;-52
2022/04/26 14:56:05;;;;;;;4.40;4.10;;;;;;;8.06;100.00;96863.59;5049774;28;20307;-57
2022/04/26 14:58:55;;;;;;;4.23;3.83;;;;;;;8.07;100.00;96865.25;5045538;28;20363;-57
2022/04/26 15:01:29;;;;;;;4.07;3.77;;;;;;;8.11;100.00;96869.19;5060159;28;20206;-58
2022/04/26 15:03:58;;;;;;;5.13;4.73;;;;;;;8.30;100.00;96864.44;5026018;28;20218;-55
2022/04/26 15:06:26;;;;;;;4.57;4.17;;;;;;;8.27;100.00;96872.72;5060187;28;20301;-58
2022/04/26 15:11:42;;;;;;;3.57;3.37;;;;;;;8.29;100.00;96868.06;5052356;28;20292;-54
2022/04/26 15:16:57;;;;;;;4.27;4.03;;;;;;;8.43;100.00;96863.84;5064838;28;20215;-57
2022/04/26 15:19:27;;;;;;;4.70;3.73;;;;;;;8.47;100.00;96859.00;5024775;28;20236;-58
2022/04/26 15:21:55;;;;;;;4.00;3.70;;;;;;;8.71;100.00;96859.81;5066508;28;20242;-53
2022/04/26 15:24:23;;;;;;;3.10;2.90;;;;;;;8.83;100.00;96863.66;5052469;28;20289;-58
2022/04/26 15:26:51;;;;;;;4.77;4.47;;;;;;;8.93;100.00;96858.94;5062590;28;20326;-57
2022/04/26 15:29:21;;;;;;;3.93;3.73;;;;;;;9.12;100.00;96867.31;5047690;28;20229;-57
2022/04/26 15:31:49;;;;;;;3.80;3.60;;;;;;;9.21;100.00;96868.06;5061608;28;20503;-55
2022/04/26 15:34:17;;;;;;;4.07;3.87;;;;;;;9.25;100.00;96856.91;5063585;28;20535;-59
2022/04/26 15:36:45;;;;;;;3.87;3.67;;;;;;;9.27;100.00;96865.47;5022561;28;20207;-58
2022/04/26 15:39:13;;;;;;;3.60;3.30;;;;;;;9.38;100.00;96868.69;5061300;28;20237;-53
2022/04/26 15:41:41;;;;;;;3.53;3.33;;;;;;;9.28;100.00;96871.59;5052457;28;20847;-50
2022/04/26 15:44:09;;;;;;;4.17;3.93;;;;;;;9.38;100.00;96876.63;5048577;28;20293;-58
2022/04/26 15:46:42;;;;;;;4.40;4.10;;;;;;;9.57;100.00;96888.44;5058426;28;20475;-53
2022/04/26 15:49:10;;;;;;;4.27;3.97;;;;;;;9.73;100.00;96884.78;5062966;28;20218;-56